KBGR/BGR METAR and TAF weather

Enter ICAO airport designator
Station Type Date Time Source
KBGR METAR 2021/02/27 20:53 UTC NOAA

KBGR 272053Z 15012KT 1 3/4SM -SN BR BKN007 OVC010 01/00 A3000 RMK AO2 PRESFR SLP161 P0005 60010 T00110000 58072


Station Type Date Time Source
KBGR Decoded METAR 2021/02/27 20:53 UTC NOAA

BANGOR INT'L AIRPORT, ME, United States (KBGR) 44-48N 068-49W 57M
Feb 27, 2021 - 03:53 PM EST / 2021.02.27 2053 UTC
Wind: from the SSE (150 degrees) at 14 MPH (12 KT):0
Visibility: 1 3/4 mile(s):0
Sky conditions: overcast
Weather: light snow; mist
Precipitation last hour: 0.05 inches
Temperature: 34.0 F (1.1 C)
Windchill: 24 F (-4 C):1
Dew Point: 32.0 F (0.0 C)
Relative Humidity: 92%
Pressure (altimeter): 30 in. Hg (1015 hPa)
Pressure tendency: falling rapidly - 0.21 inches (7.2 hPa) lower than three hours ago
ob: KBGR 272053Z 15012KT 1 3/4SM -SN BR BKN007 OVC010 01/00 A3000 RMK AO2 PRESFR SLP161 P0005 60010 T00110000 58072
cycle: 21

Station Type Date Time Source
KBGR TAF 2021/02/27 20:22 UTC NOAA

TAF
AMD KBGR 272020Z 2720/2818 17011G15KT 2SM -SN BKN007 OVC014
TEMPO 2720/2722 3/4SM -SN
FM272200 16009KT 3SM -RASN BR OVC006 WS020/18045KT
FM280100 21007KT 2SM BR VCSH OVC008
FM280430 25008KT P6SM SCT030 BKN050 WS020/30050KT
FM281000 29007KT P6SM FEW080

Example: see airport list